createdAt,value
2019-05-15T00:00:28.908Z,2.80
2019-05-15T00:02:59.810Z,6.67
2019-05-15T00:05:32.369Z,3.47
2019-05-15T00:08:09.145Z,4.17
2019-05-15T00:10:40.277Z,4.30
2019-05-15T00:13:11.373Z,5.50
2019-05-15T00:15:42.528Z,4.70
2019-05-15T00:18:15.369Z,4.40
2019-05-15T00:20:49.596Z,4.63
2019-05-15T00:23:21.754Z,3.63
2019-05-15T00:25:52.822Z,3.17
2019-05-15T00:28:23.908Z,4.73
2019-05-15T00:30:58.279Z,5.73
2019-05-15T00:33:29.558Z,2.63
2019-05-15T00:36:00.659Z,2.50
2019-05-15T00:38:38.763Z,3.57
2019-05-15T00:41:09.664Z,3.70
2019-05-15T00:43:40.926Z,5.20
2019-05-15T00:46:11.985Z,3.00
2019-05-15T00:48:43.147Z,2.73
2019-05-15T00:51:14.868Z,3.33
2019-05-15T00:53:48.291Z,3.07
2019-05-15T00:56:19.668Z,3.77
2019-05-15T00:58:50.731Z,3.70
2019-05-15T01:01:21.875Z,4.20
2019-05-15T01:03:52.992Z,3.13
2019-05-15T01:06:24.065Z,4.70
2019-05-15T01:08:55.126Z,2.73
2019-05-15T01:11:28.502Z,3.43
2019-05-15T01:14:02.703Z,4.87
2019-05-15T01:16:33.737Z,4.97
2019-05-15T01:19:04.881Z,7.50
2019-05-15T01:21:38.544Z,3.23
2019-05-15T01:24:09.888Z,5.23
2019-05-15T01:26:41.122Z,5.50
2019-05-15T01:29:12.305Z,2.73
2019-05-15T01:31:43.378Z,4.87
2019-05-15T01:34:14.449Z,6.00
2019-05-15T01:36:45.494Z,5.10
2019-05-15T01:39:18.450Z,5.83
2019-05-15T01:41:49.826Z,4.00
2019-05-15T01:44:20.982Z,3.63
2019-05-15T01:46:52.042Z,3.90
2019-05-15T01:49:23.141Z,3.80
2019-05-15T01:51:54.252Z,3.47
2019-05-15T01:54:25.494Z,5.27
2019-05-15T01:56:58.727Z,3.93
2019-05-15T01:59:30.015Z,3.87
2019-05-15T02:02:04.125Z,4.77
2019-05-15T02:04:35.353Z,4.80
2019-05-15T02:07:09.583Z,4.40
2019-05-15T02:09:40.766Z,6.10
2019-05-15T02:12:13.365Z,7.13
2019-05-15T02:14:44.495Z,3.40
2019-05-15T02:17:15.610Z,6.53
2019-05-15T02:19:51.096Z,4.33
2019-05-15T02:22:22.166Z,4.77
2019-05-15T02:24:53.286Z,3.00
2019-05-15T02:27:29.466Z,3.03
2019-05-15T02:30:15.994Z,7.50
2019-05-15T02:32:33.072Z,4.83
2019-05-15T02:35:10.052Z,3.40
2019-05-15T02:37:41.408Z,4.43
2019-05-15T02:40:14.666Z,4.03
2019-05-15T02:42:49.285Z,7.60
2019-05-15T02:45:20.779Z,3.40
2019-05-15T02:47:51.912Z,4.03
2019-05-15T02:50:24.657Z,3.90
2019-05-15T02:52:55.756Z,5.43
2019-05-15T02:55:29.618Z,4.67
2019-05-15T02:58:02.471Z,6.13
2019-05-15T03:00:43.948Z,6.13
2019-05-15T03:03:09.263Z,6.57
2019-05-15T03:05:40.908Z,8.30
2019-05-15T03:08:11.833Z,6.13
2019-05-15T03:10:43.860Z,5.73
2019-05-15T03:13:14.958Z,4.90
2019-05-15T03:15:48.938Z,4.97
2019-05-15T03:18:20.498Z,5.87
2019-05-15T03:20:51.575Z,6.07
2019-05-15T03:23:22.652Z,4.23
2019-05-15T03:25:54.676Z,4.47
2019-05-15T03:28:25.748Z,6.07
2019-05-15T03:33:36.206Z,3.10
2019-05-15T03:36:04.194Z,4.00
2019-05-15T03:38:39.301Z,8.37
2019-05-15T03:41:10.361Z,7.83
2019-05-15T03:43:43.355Z,7.67
2019-05-15T03:46:16.005Z,4.87
2019-05-15T03:48:48.703Z,9.20
2019-05-15T03:51:20.193Z,3.27
2019-05-15T03:53:51.320Z,3.00
2019-05-15T03:56:29.432Z,5.43
2019-05-15T03:59:00.001Z,4.37
2019-05-15T04:01:38.431Z,3.20
2019-05-15T04:04:03.970Z,3.80
2019-05-15T04:06:39.209Z,4.30
2019-05-15T04:09:11.838Z,2.47
2019-05-15T04:11:43.960Z,4.77
2019-05-15T04:14:15.068Z,5.50
2019-05-15T04:16:49.396Z,3.10
2019-05-15T04:19:19.335Z,2.97
2019-05-15T04:21:52.109Z,4.90
2019-05-15T04:24:29.891Z,3.67
2019-05-15T04:27:09.664Z,3.73
2019-05-15T04:29:39.647Z,4.77
2019-05-15T04:32:10.758Z,2.93
2019-05-15T04:34:43.812Z,2.53
2019-05-15T04:37:14.944Z,4.10
2019-05-15T04:39:49.294Z,3.00
2019-05-15T04:42:21.272Z,4.07
2019-05-15T04:44:52.413Z,4.17
2019-05-15T04:47:23.468Z,7.60
2019-05-15T04:49:54.539Z,7.07
2019-05-15T04:52:30.290Z,5.83
2019-05-15T04:55:00.023Z,3.33
2019-05-15T04:57:34.097Z,6.37
2019-05-15T05:00:09.574Z,4.10
2019-05-15T05:02:40.738Z,3.63
2019-05-15T05:05:15.198Z,2.87
2019-05-15T05:07:48.941Z,5.00
2019-05-15T05:10:23.410Z,4.10
2019-05-15T05:12:54.535Z,4.70
2019-05-15T05:15:29.263Z,5.70
2019-05-15T05:17:59.805Z,8.63
2019-05-15T05:20:33.919Z,7.10
2019-05-15T05:23:05.605Z,4.57
2019-05-15T05:25:38.689Z,3.80
2019-05-15T05:28:13.235Z,3.70
2019-05-15T05:30:48.255Z,5.60
2019-05-15T05:33:24.498Z,4.53
2019-05-15T05:36:00.068Z,3.43
2019-05-15T05:38:38.726Z,7.90
2019-05-15T05:41:28.029Z,7.93
2019-05-15T05:43:48.919Z,8.70
2019-05-15T05:46:40.356Z,7.33
2019-05-15T05:49:24.429Z,7.67
2019-05-15T05:54:58.103Z,6.43
2019-05-15T06:01:28.826Z,3.80
2019-05-15T06:04:04.114Z,6.57
2019-05-15T06:07:06.169Z,6.13
2019-05-15T06:09:29.964Z,3.23
2019-05-15T06:12:04.716Z,7.17
2019-05-15T06:14:38.025Z,5.20
2019-05-15T06:21:17.915Z,5.80
2019-05-15T06:24:18.079Z,3.83
2019-05-15T06:26:53.358Z,3.67
2019-05-15T06:37:51.836Z,2.43
2019-05-15T06:47:28.426Z,4.70
2019-05-15T06:50:08.415Z,5.60
2019-05-15T06:52:39.151Z,3.43
2019-05-15T06:55:38.906Z,3.87
2019-05-15T07:02:22.446Z,3.93
2019-05-15T08:08:12.255Z,2.70
2019-05-15T10:40:33.863Z,3.47
2019-05-15T10:46:32.354Z,4.08
2019-05-15T10:49:10.173Z,2.47
2019-05-15T10:51:42.168Z,4.03
2019-05-15T10:54:19.213Z,3.72
2019-05-15T10:56:52.834Z,3.60
2019-05-15T10:59:28.155Z,4.28
2019-05-15T11:01:59.383Z,4.12
2019-05-15T11:04:32.275Z,4.08
2019-05-15T11:07:03.806Z,4.35
2019-05-15T11:09:34.949Z,2.50
2019-05-15T11:12:08.745Z,2.70
2019-05-15T11:14:41.609Z,4.05
2019-05-15T11:17:13.044Z,3.33
2019-05-15T11:19:44.460Z,3.87
2019-05-15T11:22:18.962Z,3.15
2019-05-15T11:24:53.077Z,3.67
2019-05-15T11:27:28.372Z,4.12
2019-05-15T11:30:02.118Z,3.08
2019-05-15T11:32:33.209Z,3.55
2019-05-15T11:35:05.885Z,2.98
2019-05-15T11:37:43.892Z,3.05
2019-05-15T11:40:11.468Z,4.30
2019-05-15T11:42:42.667Z,5.97
2019-05-15T11:45:18.542Z,4.67
2019-05-15T11:47:49.622Z,3.65
2019-05-15T11:50:23.770Z,3.40
2019-05-15T11:52:54.874Z,3.27
2019-05-15T11:55:25.985Z,4.83
2019-05-15T12:01:53.433Z,4.10
2019-05-15T12:04:33.253Z,2.35
2019-05-15T12:07:02.743Z,7.20
2019-05-15T12:09:33.896Z,3.00
2019-05-15T12:12:13.259Z,2.95
2019-05-15T12:14:49.237Z,8.15
2019-05-15T12:17:19.059Z,3.02
2019-05-15T12:19:55.876Z,4.70
2019-05-15T12:22:28.945Z,3.43
2019-05-15T12:25:01.830Z,4.07
2019-05-15T12:27:32.964Z,1.87
2019-05-15T12:30:09.780Z,3.75
2019-05-15T12:32:40.409Z,3.60
2019-05-15T12:35:11.894Z,5.37
2019-05-15T12:37:47.607Z,5.20
2019-05-15T13:01:17.077Z,2.65
2019-05-15T13:03:42.300Z,2.42
2019-05-15T13:06:13.448Z,4.37
2019-05-15T13:08:44.524Z,5.12
2019-05-15T13:11:17.904Z,2.77
2019-05-15T13:13:48.613Z,4.20
2019-05-15T13:16:19.797Z,4.10
2019-05-15T13:18:50.862Z,4.35
2019-05-15T13:21:21.986Z,1.98
2019-05-15T13:23:53.084Z,2.37
2019-05-15T13:26:26.941Z,2.55
2019-05-15T13:28:58.272Z,6.08
2019-05-15T13:31:30.499Z,3.75
2019-05-15T13:34:01.549Z,3.50
2019-05-15T13:36:32.760Z,2.35
2019-05-15T13:39:05.530Z,4.30
2019-05-15T13:41:39.079Z,5.75
2019-05-15T13:44:11.621Z,2.52
2019-05-15T13:46:45.286Z,3.22
2019-05-15T13:49:18.573Z,1.80
2019-05-15T13:51:50.828Z,4.75
2019-05-15T13:54:22.632Z,3.33
2019-05-15T13:56:55.226Z,2.58
2019-05-15T13:59:28.507Z,4.47
2019-05-15T14:01:59.955Z,3.50
2019-05-15T14:04:31.050Z,2.55
2019-05-15T14:07:02.168Z,3.45
2019-05-15T14:09:34.643Z,4.78
2019-05-15T14:12:11.604Z,2.50
2019-05-15T14:14:38.685Z,2.40
2019-05-15T14:17:10.704Z,2.53
2019-05-15T14:19:41.709Z,3.67
2019-05-15T14:22:12.803Z,11.67
2019-05-15T14:24:45.704Z,5.50
2019-05-15T14:27:19.304Z,3.63
2019-05-15T14:29:50.928Z,2.90
2019-05-15T14:32:35.378Z,2.90
2019-05-15T14:34:58.374Z,3.43
2019-05-15T14:37:28.724Z,3.70
2019-05-15T14:39:59.895Z,6.50
2019-05-15T14:42:31.912Z,3.60
2019-05-15T14:45:03.074Z,2.27
2019-05-15T14:47:38.658Z,4.37
2019-05-15T14:50:10.336Z,3.97
2019-05-15T14:52:41.703Z,5.23
2019-05-15T14:55:13.289Z,7.27
2019-05-15T14:57:48.473Z,8.10
2019-05-15T15:00:20.415Z,5.37
2019-05-15T15:02:52.803Z,9.15
2019-05-15T15:05:25.517Z,4.28
2019-05-15T15:07:59.650Z,3.70
2019-05-15T15:10:33.958Z,4.25
2019-05-15T15:13:05.061Z,3.02
2019-05-15T15:15:37.939Z,8.87
2019-05-15T15:18:10.085Z,6.40
2019-05-15T15:20:41.142Z,5.08
2019-05-15T15:23:13.882Z,6.90
2019-05-15T15:25:45.026Z,10.85
2019-05-15T15:28:18.688Z,6.67
2019-05-15T15:30:50.658Z,5.40
2019-05-15T15:33:21.860Z,4.12
2019-05-15T15:35:53.150Z,4.33
2019-05-15T15:38:38.017Z,6.15
2019-05-15T15:41:00.096Z,6.30
2019-05-15T15:43:31.091Z,9.00
2019-05-15T15:46:02.146Z,5.42
2019-05-15T15:48:33.269Z,6.57
2019-05-15T15:51:05.354Z,5.07
2019-05-15T15:53:39.057Z,5.45
2019-05-15T15:56:11.813Z,5.50
2019-05-15T15:58:42.953Z,8.63
2019-05-15T16:01:14.050Z,7.40
2019-05-15T16:03:47.965Z,5.85
2019-05-15T16:06:18.935Z,8.50
2019-05-15T16:08:55.128Z,9.97
2019-05-15T16:11:24.329Z,11.10
2019-05-15T16:13:57.945Z,9.33
2019-05-15T16:16:31.524Z,8.27
2019-05-15T16:19:07.253Z,11.47
2019-05-15T16:21:39.815Z,8.90
2019-05-15T16:24:17.450Z,13.03
2019-05-15T16:26:45.239Z,13.33
2019-05-15T16:29:18.305Z,9.67
2019-05-15T16:31:49.376Z,13.00
2019-05-15T16:34:23.860Z,9.27
2019-05-15T16:36:55.167Z,31.97
2019-05-15T16:39:28.702Z,11.77
2019-05-15T16:41:59.851Z,10.00
2019-05-15T16:44:32.570Z,14.87
2019-05-15T16:47:03.727Z,12.33
2019-05-15T16:49:35.720Z,13.70
2019-05-15T16:52:09.018Z,13.17
2019-05-15T16:54:39.615Z,11.93
2019-05-15T16:57:10.673Z,9.43
2019-05-15T16:59:42.719Z,10.13
2019-05-15T17:02:13.985Z,11.63
2019-05-15T17:04:45.989Z,13.00
2019-05-15T17:07:18.253Z,12.43
2019-05-15T17:09:49.729Z,13.57
2019-05-15T17:12:20.834Z,9.03
2019-05-15T17:14:52.834Z,16.48
2019-05-15T17:17:24.001Z,7.47
2019-05-15T17:19:57.968Z,12.20
2019-05-15T17:22:29.391Z,8.73
2019-05-15T17:25:00.547Z,10.60
2019-05-15T17:27:33.349Z,7.57
2019-05-15T17:30:05.752Z,9.67
2019-05-15T17:32:39.868Z,9.73
2019-05-15T17:35:12.318Z,8.13
2019-05-15T17:37:43.723Z,10.87
2019-05-15T17:40:17.664Z,11.50
2019-05-15T17:42:50.573Z,15.30
2019-05-15T17:45:23.332Z,30.67
2019-05-15T17:47:54.814Z,28.43
2019-05-15T17:50:28.312Z,15.73
2019-05-15T17:52:59.601Z,28.23
2019-05-15T17:55:30.760Z,26.07
2019-05-15T17:58:01.946Z,20.13
2019-05-15T18:00:33.866Z,17.93
2019-05-15T18:03:05.090Z,14.27
2019-05-15T18:05:39.181Z,21.23
2019-05-15T18:08:10.452Z,9.27
2019-05-15T18:10:41.587Z,9.00
2019-05-15T18:13:12.639Z,21.00
2019-05-15T18:15:45.178Z,8.77
2019-05-15T18:18:18.512Z,13.90
2019-05-15T18:20:49.985Z,12.50
2019-05-15T18:23:23.664Z,14.83
2019-05-15T18:25:54.982Z,15.23
2019-05-15T18:28:26.260Z,12.60
2019-05-15T18:30:58.768Z,13.03
2019-05-15T18:33:31.507Z,13.27
2019-05-15T18:36:04.995Z,11.23
2019-05-15T18:38:38.588Z,11.37
2019-05-15T18:41:09.157Z,11.93
2019-05-15T18:43:40.317Z,15.10
2019-05-15T18:46:12.297Z,11.43
2019-05-15T18:48:43.441Z,9.13
2019-05-15T18:51:15.369Z,11.50
2019-05-15T18:53:48.201Z,13.57
2019-05-15T18:56:19.600Z,11.63
2019-05-15T18:58:50.668Z,11.40
2019-05-15T19:01:21.897Z,12.37
2019-05-15T19:03:53.191Z,26.63
2019-05-15T19:10:20.457Z,11.27
2019-05-15T19:12:58.648Z,11.97
2019-05-15T19:15:32.311Z,15.03
2019-05-15T19:18:02.539Z,20.23
2019-05-15T19:20:33.903Z,17.63
2019-05-15T19:23:08.007Z,16.63
2019-05-15T19:25:42.531Z,13.00
2019-05-15T19:28:24.515Z,24.73
2019-05-15T19:41:29.484Z,12.73
2019-05-15T19:44:00.929Z,13.43
2019-05-15T19:46:34.042Z,11.90
2019-05-15T19:49:05.094Z,11.73
2019-05-15T19:51:38.125Z,6.43
2019-05-15T19:54:09.419Z,9.10
2019-05-15T19:56:41.324Z,9.90
2019-05-15T19:59:12.401Z,10.00
2019-05-15T20:01:45.279Z,12.13
2019-05-15T20:04:18.439Z,11.80
2019-05-15T20:06:49.407Z,10.57
2019-05-15T20:09:20.497Z,10.03
2019-05-15T20:11:52.421Z,11.53
2019-05-15T20:14:28.825Z,11.73
2019-05-15T20:17:00.073Z,9.53
2019-05-15T20:19:32.727Z,13.73
2019-05-15T20:22:03.843Z,12.40
2019-05-15T20:24:38.173Z,7.47
2019-05-15T20:27:11.165Z,15.97
2019-05-15T20:29:42.257Z,10.53
2019-05-15T20:32:18.449Z,8.23
2019-05-15T20:34:49.806Z,11.60
2019-05-15T20:37:20.927Z,14.97
2019-05-15T20:40:03.555Z,11.77
2019-05-15T20:42:34.862Z,10.37
2019-05-15T20:45:11.627Z,8.87
2019-05-15T20:47:47.846Z,16.63
2019-05-15T20:50:19.466Z,12.57
2019-05-15T20:52:52.134Z,16.73
2019-05-15T20:55:23.175Z,17.20
2019-05-15T20:57:55.168Z,13.90
2019-05-15T21:00:27.724Z,20.00
2019-05-15T21:02:58.831Z,24.30
2019-05-15T21:05:29.935Z,38.67
2019-05-15T21:08:01.287Z,31.80
2019-05-15T21:10:32.346Z,17.93
2019-05-15T21:13:03.436Z,14.53
2019-05-15T21:15:34.480Z,28.23
2019-05-15T21:18:14.668Z,10.50
2019-05-15T21:20:38.290Z,24.17
2019-05-15T21:23:09.517Z,12.93
2019-05-15T21:25:40.556Z,7.80
2019-05-15T21:28:12.428Z,15.13
2019-05-15T21:30:43.443Z,26.20
2019-05-15T21:33:14.496Z,15.30
2019-05-15T21:35:47.634Z,12.00
2019-05-15T21:38:21.214Z,13.33
2019-05-15T21:40:51.109Z,10.27
2019-05-15T21:43:22.974Z,12.77
2019-05-15T21:45:54.046Z,11.13
2019-05-15T21:48:25.111Z,12.70
2019-05-15T21:50:56.319Z,13.13
2019-05-15T21:53:28.693Z,11.47
2019-05-15T21:56:00.100Z,10.77
2019-05-15T21:58:33.578Z,9.07
2019-05-15T22:01:04.829Z,12.23
2019-05-15T22:03:35.912Z,9.70
2019-05-15T22:06:08.794Z,11.27
2019-05-15T22:08:39.920Z,13.13
2019-05-15T22:11:12.671Z,14.73
2019-05-15T22:13:47.918Z,27.87
2019-05-15T22:16:19.484Z,10.30
2019-05-15T22:18:52.077Z,9.93
2019-05-15T22:21:26.401Z,10.43
2019-05-15T22:23:59.878Z,12.83
2019-05-15T22:26:31.746Z,12.70
2019-05-15T22:29:03.718Z,10.97
2019-05-15T22:31:35.050Z,17.37
2019-05-15T22:34:07.826Z,14.13
2019-05-15T22:36:38.867Z,15.30
2019-05-15T22:39:10.049Z,15.27
2019-05-15T22:41:41.195Z,11.67
2019-05-15T22:44:13.097Z,12.50
2019-05-15T22:46:44.149Z,15.03
2019-05-15T22:49:18.169Z,10.60
2019-05-15T22:51:48.795Z,8.00
2019-05-15T22:54:21.377Z,10.00
2019-05-15T22:56:57.560Z,9.70
2019-05-15T22:59:28.427Z,7.27
2019-05-15T23:01:59.517Z,6.90
2019-05-15T23:04:30.630Z,9.90
2019-05-15T23:07:01.692Z,9.33
2019-05-15T23:09:32.740Z,8.40
2019-05-15T23:12:04.098Z,9.60
2019-05-15T23:14:35.209Z,5.20
2019-05-15T23:17:08.204Z,7.63
2019-05-15T23:19:39.017Z,5.23
2019-05-15T23:22:10.044Z,9.63
2019-05-15T23:24:41.104Z,8.07
2019-05-15T23:27:12.192Z,7.67
2019-05-15T23:29:44.069Z,12.93
2019-05-15T23:32:15.147Z,11.13
2019-05-15T23:34:49.165Z,12.23
2019-05-15T23:37:19.771Z,9.70
2019-05-15T23:39:50.926Z,9.30
2019-05-15T23:42:23.433Z,9.07
2019-05-15T23:44:54.555Z,7.10
2019-05-15T23:47:25.632Z,7.97
2019-05-15T23:49:57.874Z,11.27
2019-05-15T23:52:29.734Z,5.93
2019-05-15T23:55:00.790Z,9.10
2019-05-15T23:57:31.854Z,8.00
